Time;durP1;ratioP1;P1;durP2;ratioP2;P2;SDS_P1;SDS_P2;PMS_P1;PMS_P2;Temp;Humidity;BMP_temperature;BMP_pressure;BME280_temperature;BME280_humidity;BME280_pressure;Samples;Min_cycle;Max_cycle;Signal;HPM_P1;HPM_P2
2022/10/03 00:00:23;;;;;;;52.97;13.10;;;10.90;99.90;;;;;;5035607;28;20036;-83
2022/10/03 00:03:13;;;;;;;61.17;11.95;;;10.90;99.90;;;;;;5038357;28;20387;-86
2022/10/03 00:06:01;;;;;;;61.58;11.45;;;10.80;99.90;;;;;;5046043;28;20017;-82
2022/10/03 00:08:48;;;;;;;58.65;10.90;;;12.80;99.90;;;;;;5011350;28;20033;-81
2022/10/03 00:11:31;;;;;;;37.10;9.05;;;10.70;99.90;;;;;;5040935;28;20032;-84
2022/10/03 00:14:20;;;;;;;59.35;9.02;;;10.30;99.90;;;;;;5055668;28;20029;-85
2022/10/03 00:16:54;;;;;;;20.88;8.45;;;10.70;99.90;;;;;;5041289;28;20026;-84
2022/10/03 00:19:42;;;;;;;39.88;8.63;;;10.70;99.90;;;;;;5042432;28;20369;-80
2022/10/03 00:22:37;;;;;;;29.73;8.45;;;10.60;99.90;;;;;;5041294;28;20084;-82
2022/10/03 00:25:25;;;;;;;16.80;8.80;;;10.60;99.90;;;;;;5015531;28;20244;-84
2022/10/03 00:30:21;;;;;;;19.15;7.45;;;10.50;99.90;;;;;;5027467;28;20049;-83
2022/10/03 00:33:14;;;;;;;22.20;6.70;;;10.50;99.90;;;;;;5013225;28;20037;-81
2022/10/03 00:35:55;;;;;;;28.67;6.55;;;10.50;99.90;;;;;;5014194;28;20046;-84
2022/10/03 00:38:29;;;;;;;40.67;6.80;;;10.40;99.90;;;;;;4997738;28;20022;-82
2022/10/03 00:41:13;;;;;;;27.98;6.78;;;10.30;99.90;;;;;;5015084;28;20030;-82
2022/10/03 00:44:07;;;;;;;16.13;7.95;;;10.30;99.90;;;;;;5019307;28;20046;-83
2022/10/03 00:47:00;;;;;;;17.65;6.97;;;10.30;99.90;;;;;;5026346;28;20496;-83
2022/10/03 00:50:03;;;;;;;18.17;6.68;;;10.40;99.90;;;;;;5001172;28;20030;-85
2022/10/03 00:52:38;;;;;;;13.80;6.05;;;10.40;99.90;;;;;;4992625;28;20569;-84
2022/10/03 00:55:34;;;;;;;15.05;7.05;;;10.30;99.90;;;;;;5017263;28;20487;-81
2022/10/03 00:58:12;;;;;;;16.25;6.00;;;10.30;99.90;;;;;;5029417;28;20026;-81
2022/10/03 01:00:43;;;;;;;16.38;6.55;;;10.20;99.90;;;;;;5015265;28;20026;-82
2022/10/03 01:03:08;;;;;;;17.75;5.63;;;10.20;99.90;;;;;;4999847;28;20026;-82
2022/10/03 01:05:49;;;;;;;11.35;6.25;;;10.20;99.90;;;;;;5016507;28;20057;-81
2022/10/03 01:08:31;;;;;;;12.75;6.38;;;10.20;99.90;;;;;;5007073;28;20018;-81
2022/10/03 01:11:30;;;;;;;13.50;5.75;;;10.20;99.90;;;;;;5013880;28;20032;-83
2022/10/03 01:14:13;;;;;;;17.35;6.28;;;10.20;99.90;;;;;;4979557;28;20065;-82
2022/10/03 01:17:04;;;;;;;31.52;9.48;;;10.20;99.90;;;;;;4996477;28;20053;-85
2022/10/03 01:20:07;;;;;;;15.63;6.40;;;10.20;99.90;;;;;;5017613;28;20026;-83
2022/10/03 01:23:20;;;;;;;15.88;6.10;;;10.20;99.90;;;;;;4992785;28;20159;-83
2022/10/03 01:25:55;;;;;;;17.38;7.20;;;10.20;99.90;;;;;;4980122;28;20241;-81
2022/10/03 01:31:13;;;;;;;23.08;8.27;;;10.20;99.90;;;;;;5013915;28;20139;-84
2022/10/03 01:33:49;;;;;;;25.13;7.88;;;10.30;99.90;;;;;;5008476;28;20026;-82
2022/10/03 01:36:25;;;;;;;16.25;7.25;;;10.20;99.90;;;;;;4997965;28;20053;-84
2022/10/03 01:39:26;;;;;;;17.95;7.78;;;10.20;99.90;;;;;;5019285;28;20061;-81
2022/10/03 01:42:03;;;;;;;;;;;10.30;99.90;;;;;;5017607;28;20030;-83
2022/10/03 01:44:51;;;;;;;18.17;8.10;;;10.30;99.90;;;;;;5020266;28;19906;-86
2022/10/03 01:47:26;;;;;;;14.27;6.68;;;10.30;99.90;;;;;;5019444;28;20017;-85
2022/10/03 01:50:00;;;;;;;18.35;8.27;;;10.30;99.90;;;;;;5000826;28;20407;-86
2022/10/03 01:53:12;;;;;;;22.95;7.55;;;11.70;99.90;;;;;;5018968;28;20098;-83
2022/10/03 01:55:40;;;;;;;40.28;6.85;;;10.30;99.90;;;;;;5004367;28;20053;-83
2022/10/03 01:58:38;;;;;;;31.95;6.82;;;10.30;99.90;;;;;;5021849;28;20472;-84
2022/10/03 02:01:11;;;;;;;40.55;6.32;;;10.20;99.90;;;;;;5007068;28;20034;-82
2022/10/03 02:03:51;;;;;;;46.33;7.72;;;10.20;99.90;;;;;;5015787;28;20030;-83
2022/10/03 02:06:42;;;;;;;28.38;6.22;;;10.10;99.90;;;;;;5002274;28;20022;-82
2022/10/03 02:09:23;;;;;;;;;;;10.00;99.90;;;;;;4997515;28;20017;-86
2022/10/03 02:11:49;;;;;;;22.02;5.43;;;10.00;99.90;;;;;;5021306;28;19910;-84
2022/10/03 02:14:15;;;;;;;27.48;5.68;;;;;;;;;;5020919;28;20065;-83
2022/10/03 02:17:03;;;;;;;23.15;5.35;;;10.00;99.90;;;;;;5028057;28;20028;-83
2022/10/03 02:19:47;;;;;;;21.70;4.88;;;9.90;99.90;;;;;;5023691;28;20018;-83
2022/10/03 02:22:27;;;;;;;22.75;4.50;;;9.90;99.90;;;;;;5042470;28;20072;-84
2022/10/03 02:25:01;;;;;;;26.73;5.00;;;9.80;99.90;;;;;;5007685;28;20037;-84
2022/10/03 02:27:45;;;;;;;21.17;3.95;;;9.70;99.90;;;;;;5028150;28;20400;-81
2022/10/03 02:30:48;;;;;;;32.42;4.55;;;9.60;99.90;;;;;;5032578;28;20042;-84
2022/10/03 02:33:24;;;;;;;42.80;5.82;;;;;;;;;;5028261;28;20026;-83
2022/10/03 02:36:09;;;;;;;23.67;5.10;;;9.60;99.90;;;;;;5019306;28;20021;-84
2022/10/03 02:38:56;;;;;;;41.03;5.95;;;9.60;99.90;;;;;;5023274;28;20021;-82
2022/10/03 02:41:25;;;;;;;79.45;6.50;;;9.50;99.90;;;;;;4999872;28;20059;-84
2022/10/03 02:44:05;;;;;;;28.58;5.57;;;9.50;99.90;;;;;;5014881;28;20054;-84
2022/10/03 02:46:34;;;;;;;;;;;9.50;99.90;;;;;;5028141;28;20017;-83
2022/10/03 02:49:03;;;;;;;40.13;6.55;;;9.50;99.90;;;;;;5027695;28;19909;-85
2022/10/03 02:51:34;;;;;;;78.22;7.95;;;10.40;99.90;;;;;;5003065;28;20137;-84
2022/10/03 02:54:41;;;;;;;45.17;6.47;;;9.60;99.90;;;;;;5021141;28;20025;-83
2022/10/03 02:57:38;;;;;;;52.88;6.95;;;9.60;99.90;;;;;;5017775;28;20072;-82
2022/10/03 03:00:21;;;;;;;53.35;7.05;;;9.60;99.90;;;;;;5026561;28;20057;-81
2022/10/03 03:03:24;;;;;;;90.03;9.30;;;9.60;99.90;;;;;;5036538;28;20138;-86
2022/10/03 03:05:52;;;;;;;86.88;9.05;;;9.60;99.90;;;;;;5008244;28;20026;-85
2022/10/03 03:08:32;;;;;;;27.83;7.72;;;9.60;99.90;;;;;;5025505;28;20025;-83
2022/10/03 03:11:26;;;;;;;44.25;6.95;;;9.60;99.90;;;;;;5024418;28;20018;-83
2022/10/03 03:14:49;;;;;;;23.55;5.57;;;9.60;99.90;;;;;;5003690;28;20036;-82
2022/10/03 03:17:15;;;;;;;48.40;6.03;;;;;;;;;;5010762;28;20026;-84
2022/10/03 03:19:43;;;;;;;57.03;6.38;;;9.60;99.90;;;;;;5003395;28;20034;-81
2022/10/03 03:22:28;;;;;;;32.45;5.38;;;9.50;99.90;;;;;;5024417;28;20038;-81
2022/10/03 03:25:18;;;;;;;52.17;6.75;;;9.50;99.90;;;;;;5024002;28;20400;-82
2022/10/03 03:27:51;;;;;;;96.53;9.02;;;9.50;99.90;;;;;;5027087;28;20092;-88
2022/10/03 03:30:22;;;;;;;62.53;7.43;;;9.50;99.90;;;;;;5012076;28;20106;-87
2022/10/03 03:33:06;;;;;;;51.80;5.82;;;9.40;99.90;;;;;;4997640;28;20030;-82
2022/10/03 03:36:04;;;;;;;40.42;6.03;;;9.40;99.90;;;;;;5002142;28;20022;-83
2022/10/03 03:39:04;;;;;;;53.25;7.57;;;9.40;99.90;;;;;;4996230;28;20097;-87
2022/10/03 03:42:08;;;;;;;54.03;5.63;;;9.40;99.90;;;;;;5017221;28;20026;-84
2022/10/03 03:45:09;;;;;;;43.78;6.07;;;9.40;99.90;;;;;;5016167;28;20061;-87
2022/10/03 03:47:53;;;;;;;36.45;5.22;;;9.40;99.90;;;;;;4999764;28;20041;-82
2022/10/03 03:50:32;;;;;;;48.35;5.43;;;9.40;99.90;;;;;;5011496;28;20049;-85
2022/10/03 03:53:13;;;;;;;40.20;5.72;;;9.30;99.90;;;;;;5014615;28;20113;-87
2022/10/03 03:55:53;;;;;;;41.33;5.50;;;9.30;99.90;;;;;;5007184;28;20022;-85
2022/10/03 03:58:30;;;;;;;69.13;6.80;;;9.30;99.90;;;;;;5010533;28;20041;-86
2022/10/03 04:01:14;;;;;;;37.35;4.97;;;9.20;99.90;;;;;;4999663;28;20399;-81
2022/10/03 04:03:59;;;;;;;71.60;7.30;;;9.20;99.90;;;;;;5000127;28;20030;-85
2022/10/03 04:06:49;;;;;;;62.30;6.20;;;9.10;99.90;;;;;;5010786;28;20126;-87
2022/10/03 04:09:34;;;;;;;53.55;5.88;;;9.20;99.90;;;;;;5014446;28;20026;-85
2022/10/03 04:12:54;;;;;;;71.55;6.45;;;9.10;99.90;;;;;;5015899;28;20098;-82
2022/10/03 04:16:02;;;;;;;98.18;7.18;;;9.10;99.90;;;;;;4925831;29;20039;-87
2022/10/03 04:18:58;;;;;;;65.38;6.03;;;9.00;99.90;;;;;;5020026;28;20062;-83
2022/10/03 04:21:30;;;;;;;26.45;5.45;;;;;;;;;;5034389;28;20041;-84
2022/10/03 04:24:20;;;;;;;46.33;4.97;;;9.00;99.90;;;;;;5044700;28;20017;-87
2022/10/03 04:27:15;;;;;;;61.58;5.75;;;9.00;99.90;;;;;;5020739;28;20049;-84
2022/10/03 04:30:13;;;;;;;34.53;5.32;;;9.00;99.90;;;;;;5013181;28;20038;-83
2022/10/03 04:32:56;;;;;;;54.40;5.72;;;9.00;99.90;;;;;;4995913;28;20053;-84
2022/10/03 04:35:45;;;;;;;36.92;6.05;;;9.00;99.90;;;;;;5016424;28;20101;-83
2022/10/03 04:38:23;;;;;;;53.97;7.15;;;9.00;99.90;;;;;;4998991;28;20021;-81
2022/10/03 04:40:54;;;;;;;20.05;4.60;;;9.00;99.90;;;;;;5000022;28;20061;-84
2022/10/03 04:43:53;;;;;;;22.55;5.38;;;9.00;99.90;;;;;;5018458;28;20022;-83
2022/10/03 04:46:51;;;;;;;31.13;5.00;;;9.10;99.90;;;;;;5008991;28;20026;-83
2022/10/03 04:49:25;;;;;;;27.73;5.47;;;9.00;99.90;;;;;;5025397;28;20022;-83
2022/10/03 04:51:54;;;;;;;29.98;5.22;;;9.00;99.90;;;;;;5030317;28;20499;-83
2022/10/03 04:54:53;;;;;;;28.52;4.32;;;9.00;99.90;;;;;;4996759;28;20041;-83
2022/10/03 04:57:45;;;;;;;43.22;4.47;;;9.00;99.90;;;;;;5010255;28;20565;-85
2022/10/03 05:00:19;;;;;;;42.58;4.60;;;9.00;99.90;;;;;;5014086;28;20591;-85
2022/10/03 05:03:02;;;;;;;31.17;4.35;;;9.00;99.90;;;;;;4995020;28;20080;-82
2022/10/03 05:05:47;;;;;;;37.22;5.63;;;9.00;99.90;;;;;;4999509;28;20507;-84
2022/10/03 05:08:28;;;;;;;63.72;5.00;;;9.00;99.90;;;;;;5014012;28;20054;-84
2022/10/03 05:10:56;;;;;;;41.38;3.88;;;8.90;99.90;;;;;;5026578;28;20098;-81
2022/10/03 05:13:43;;;;;;;17.40;3.75;;;8.80;99.90;;;;;;5014035;28;20108;-84
2022/10/03 05:16:45;;;;;;;58.30;4.55;;;8.80;99.90;;;;;;5019842;28;20037;-84
2022/10/03 05:19:35;;;;;;;50.70;5.13;;;8.70;99.90;;;;;;5006615;28;20072;-84
2022/10/03 05:22:11;;;;;;;25.27;3.92;;;8.70;99.90;;;;;;5002453;28;20029;-81
2022/10/03 05:24:58;;;;;;;14.57;3.60;;;8.70;99.90;;;;;;5003839;28;20052;-84
2022/10/03 05:27:34;;;;;;;27.30;3.28;;;8.70;99.90;;;;;;5002750;28;20054;-80
2022/10/03 05:30:19;;;;;;;22.83;3.20;;;8.70;99.90;;;;;;5006588;28;20040;-84
2022/10/03 05:32:53;;;;;;;19.10;3.00;;;8.70;99.90;;;;;;5027410;28;20025;-86
2022/10/03 05:35:41;;;;;;;11.07;2.92;;;8.60;99.90;;;;;;4995404;28;20019;-85
2022/10/03 05:38:13;;;;;;;16.67;3.30;;;8.60;99.90;;;;;;5000121;28;20022;-85
2022/10/03 05:41:03;;;;;;;28.60;3.60;;;8.70;99.90;;;;;;5005024;28;20022;-86
2022/10/03 05:43:34;;;;;;;22.80;2.90;;;8.60;99.90;;;;;;5023714;28;20029;-84
2022/10/03 05:46:23;;;;;;;16.42;3.10;;;8.60;99.90;;;;;;5015109;28;20021;-86
2022/10/03 05:49:03;;;;;;;19.00;3.90;;;;;;;;;;4992549;28;20033;-87
2022/10/03 05:52:07;;;;;;;14.77;3.00;;;8.60;99.90;;;;;;5016948;28;20034;-84
2022/10/03 05:54:49;;;;;;;16.77;2.97;;;8.60;99.90;;;;;;5023797;28;20415;-85
2022/10/03 05:57:17;;;;;;;13.63;3.70;;;8.60;99.90;;;;;;5033983;28;20037;-86
2022/10/03 05:59:59;;;;;;;23.05;2.80;;;8.60;99.90;;;;;;5001787;28;20037;-84
2022/10/03 06:03:02;;;;;;;28.02;3.47;;;8.60;99.90;;;;;;5001321;28;20061;-87
2022/10/03 06:06:02;;;;;;;33.00;3.45;;;8.50;99.90;;;;;;5016017;28;20057;-86
2022/10/03 06:08:48;;;;;;;30.27;3.90;;;8.50;99.90;;;;;;5011270;28;20049;-88
2022/10/03 06:11:33;;;;;;;38.97;4.47;;;8.60;99.90;;;;;;5017030;28;20025;-83
2022/10/03 06:14:01;;;;;;;44.05;5.00;;;8.60;99.90;;;;;;5018173;28;20028;-82
2022/10/03 06:17:00;;;;;;;52.05;4.63;;;8.60;99.90;;;;;;5018535;28;20033;-83
2022/10/03 06:19:48;;;;;;;39.90;4.55;;;8.60;99.90;;;;;;5012642;28;20030;-84
2022/10/03 06:22:42;;;;;;;37.90;3.75;;;8.60;99.90;;;;;;5019990;28;20456;-85
2022/10/03 06:25:26;;;;;;;43.92;4.93;;;8.60;99.90;;;;;;5014745;28;20045;-86
2022/10/03 06:28:17;;;;;;;25.85;4.18;;;8.60;99.90;;;;;;5024679;28;20026;-84
2022/10/03 06:30:57;;;;;;;25.42;3.90;;;8.70;99.90;;;;;;5023121;28;20041;-85
2022/10/03 06:34:15;;;;;;;60.03;4.18;;;8.70;99.90;;;;;;5027685;28;20029;-86
2022/10/03 06:36:54;;;;;;;24.77;3.90;;;8.70;99.90;;;;;;5019282;28;20033;-84
2022/10/03 06:39:41;;;;;;;26.33;4.35;;;8.60;99.90;;;;;;4993520;28;20030;-87
2022/10/03 06:42:44;;;;;;;12.25;2.97;;;8.60;99.90;;;;;;5030126;28;20030;-87
2022/10/03 06:45:47;;;;;;;16.33;2.63;;;8.60;99.90;;;;;;5013411;28;20398;-81
2022/10/03 06:48:42;;;;;;;22.17;3.15;;;8.70;99.90;;;;;;5017190;28;20491;-86
2022/10/03 06:51:38;;;;;;;6.13;2.85;;;8.60;99.90;;;;;;5020323;28;20025;-85
2022/10/03 06:54:22;;;;;;;12.90;2.58;;;8.60;99.90;;;;;;5003864;28;20026;-87
2022/10/03 06:57:36;;;;;;;17.17;3.20;;;10.10;99.90;;;;;;5018992;28;20026;-86
2022/10/03 07:00:17;;;;;;;9.15;2.65;;;8.60;99.90;;;;;;5008187;28;20026;-84
2022/10/03 07:03:02;;;;;;;;;;;8.50;99.90;;;;;;5012212;28;20030;-84
2022/10/03 07:05:53;;;;;;;9.45;2.55;;;8.50;99.90;;;;;;5002747;28;19945;-85
2022/10/03 07:08:50;;;;;;;10.40;3.03;;;8.50;99.90;;;;;;4999846;28;20026;-86
2022/10/03 07:12:05;;;;;;;9.90;2.40;;;8.50;99.90;;;;;;5022053;28;20116;-81
2022/10/03 07:15:09;;;;;;;24.67;2.95;;;8.60;99.90;;;;;;5014854;28;20037;-82
2022/10/03 07:17:44;;;;;;;23.30;2.85;;;8.60;99.90;;;;;;4983122;28;20088;-84
2022/10/03 07:20:28;;;;;;;10.68;2.33;;;8.50;99.90;;;;;;5017425;28;20025;-86
2022/10/03 07:23:25;;;;;;;15.25;2.83;;;8.50;99.90;;;;;;5005669;28;20052;-85
2022/10/03 07:26:28;;;;;;;25.15;3.03;;;8.50;99.90;;;;;;5016607;28;20029;-81
2022/10/03 07:29:23;;;;;;;10.98;3.00;;;8.40;99.90;;;;;;5033498;28;20113;-82
2022/10/03 07:32:09;;;;;;;8.18;3.13;;;8.50;99.90;;;;;;5024975;28;20036;-83
2022/10/03 07:34:51;;;;;;;7.32;2.85;;;9.20;99.90;;;;;;4994295;28;20073;-83
2022/10/03 07:40:14;;;;;;;10.43;3.90;;;10.10;99.90;;;;;;5025959;28;20061;-83
2022/10/03 07:43:02;;;;;;;7.57;4.75;;;8.70;99.90;;;;;;5018516;28;20018;-80
2022/10/03 07:45:47;;;;;;;7.03;3.80;;;8.80;99.90;;;;;;5019692;28;20105;-82
2022/10/03 07:48:50;;;;;;;5.90;3.45;;;8.90;99.90;;;;;;5018895;28;20037;-82
2022/10/03 07:51:34;;;;;;;5.95;3.50;;;9.00;99.90;;;;;;5016311;28;20083;-83
2022/10/03 07:54:10;;;;;;;9.30;3.13;;;9.00;99.90;;;;;;5018601;28;20037;-84
2022/10/03 07:56:42;;;;;;;5.78;3.40;;;9.10;99.90;;;;;;5012534;28;20056;-83
2022/10/03 07:59:25;;;;;;;7.72;3.67;;;9.10;99.90;;;;;;5017133;28;20026;-81
2022/10/03 08:02:16;;;;;;;7.60;3.70;;;9.10;99.90;;;;;;4998925;28;20030;-83
2022/10/03 08:05:25;;;;;;;6.68;3.22;;;9.10;99.90;;;;;;5021653;28;20025;-83
2022/10/03 08:08:12;;;;;;;26.00;3.88;;;9.20;99.90;;;;;;5015530;28;20112;-80
2022/10/03 08:10:59;;;;;;;10.50;3.80;;;9.20;99.90;;;;;;5017600;28;20088;-80
2022/10/03 08:13:49;;;;;;;9.43;4.00;;;9.20;99.90;;;;;;5013116;28;20079;-81
2022/10/03 08:16:36;;;;;;;5.35;3.30;;;9.30;99.90;;;;;;5005708;28;20443;-83
2022/10/03 08:19:10;;;;;;;7.70;3.88;;;9.30;99.90;;;;;;5025777;28;20484;-80
2022/10/03 08:21:55;;;;;;;9.43;3.28;;;9.40;99.90;;;;;;5002246;28;20189;-80
2022/10/03 08:24:49;;;;;;;4.80;2.97;;;9.40;99.90;;;;;;5018015;28;20022;-79
2022/10/03 08:27:34;;;;;;;7.93;3.70;;;9.50;99.90;;;;;;5023515;28;20026;-82
2022/10/03 08:30:18;;;;;;;6.80;3.67;;;9.60;99.90;;;;;;5023830;28;20406;-81
2022/10/03 08:33:03;;;;;;;8.20;3.45;;;9.70;99.90;;;;;;5007971;28;20095;-81
2022/10/03 08:35:58;;;;;;;5.95;4.32;;;9.70;99.90;;;;;;5006606;28;20081;-79
2022/10/03 08:38:54;;;;;;;10.00;4.30;;;9.80;99.90;;;;;;4987403;28;20041;-80
2022/10/03 08:41:54;;;;;;;10.88;4.25;;;9.90;99.90;;;;;;4993365;28;20041;-81
2022/10/03 08:44:22;;;;;;;7.00;4.28;;;9.90;99.90;;;;;;5011589;28;20447;-81
2022/10/03 08:47:09;;;;;;;8.80;5.40;;;9.90;99.90;;;;;;5015616;28;20491;-80
2022/10/03 08:49:57;;;;;;;8.27;4.25;;;9.90;99.90;;;;;;4992205;28;20047;-80
2022/10/03 08:52:41;;;;;;;10.30;4.72;;;10.00;99.90;;;;;;5035541;28;20025;-79
2022/10/03 08:55:49;;;;;;;6.68;4.70;;;10.10;99.90;;;;;;5014744;28;20025;-79
2022/10/03 08:58:24;;;;;;;6.70;4.30;;;10.20;99.90;;;;;;4999310;28;20377;-82
2022/10/03 09:01:34;;;;;;;9.02;5.50;;;10.40;99.90;;;;;;5020403;28;20075;-80
2022/10/03 09:04:14;;;;;;;8.50;5.27;;;10.60;99.90;;;;;;4968591;28;20045;-82
2022/10/03 09:06:59;;;;;;;7.80;4.43;;;10.80;99.90;;;;;;4994110;28;20059;-82
2022/10/03 09:10:02;;;;;;;6.60;4.63;;;10.90;99.90;;;;;;5011493;28;20510;-82
2022/10/03 09:12:57;;;;;;;7.13;4.68;;;11.10;99.90;;;;;;5019265;28;20476;-78
2022/10/03 09:15:40;;;;;;;7.70;4.68;;;11.20;99.90;;;;;;5016947;28;20021;-81
2022/10/03 09:18:37;;;;;;;6.72;4.85;;;11.40;99.90;;;;;;5015203;28;20034;-84
2022/10/03 09:21:27;;;;;;;8.30;5.25;;;11.50;99.90;;;;;;5016847;28;20117;-82
2022/10/03 09:24:24;;;;;;;7.07;4.95;;;11.60;99.90;;;;;;5002523;28;20019;-83
2022/10/03 09:27:32;;;;;;;7.38;4.10;;;11.80;99.90;;;;;;5018963;28;20025;-82
2022/10/03 09:30:28;;;;;;;8.13;4.38;;;11.90;99.90;;;;;;5031570;28;20113;-82
2022/10/03 09:32:56;;;;;;;7.60;4.78;;;12.00;99.90;;;;;;5017496;28;20042;-82
2022/10/03 09:35:44;;;;;;;9.10;4.95;;;13.00;99.90;;;;;;5015585;28;20496;-84
2022/10/03 09:38:43;;;;;;;7.25;4.45;;;12.20;99.90;;;;;;5011405;28;20483;-82
2022/10/03 09:41:17;;;;;;;11.60;4.82;;;12.30;99.90;;;;;;5003340;28;20026;-82
2022/10/03 09:44:31;;;;;;;10.00;4.63;;;12.50;99.90;;;;;;5018472;28;20034;-85
2022/10/03 09:47:27;;;;;;;8.25;4.78;;;12.60;99.90;;;;;;5008839;28;20397;-84
2022/10/03 09:50:30;;;;;;;12.80;4.97;;;12.90;99.90;;;;;;5018113;28;20026;-82
2022/10/03 09:53:17;;;;;;;7.28;4.95;;;13.00;99.90;;;;;;5014477;28;20034;-83
2022/10/03 09:56:02;;;;;;;9.88;4.47;;;13.10;99.90;;;;;;5018994;28;20026;-82
2022/10/03 09:59:06;;;;;;;9.70;5.03;;;13.10;99.90;;;;;;5028065;28;20039;-84
2022/10/03 10:01:38;;;;;;;8.02;4.55;;;13.20;99.90;;;;;;5004119;28;20034;-84
2022/10/03 10:04:07;;;;;;;11.23;5.72;;;13.30;99.90;;;;;;5000156;28;20035;-84
2022/10/03 10:07:12;;;;;;;8.90;5.00;;;13.70;99.90;;;;;;5029837;28;20021;-80
2022/10/03 10:09:41;;;;;;;9.80;4.63;;;13.90;99.90;;;;;;5018620;28;20511;-83
2022/10/03 10:12:40;;;;;;;10.15;5.50;;;13.90;99.90;;;;;;5034963;28;20022;-83
2022/10/03 10:15:43;;;;;;;14.38;4.43;;;14.10;99.90;;;;;;5028245;28;20022;-79
2022/10/03 10:18:27;;;;;;;10.13;4.47;;;14.40;99.90;;;;;;4998635;28;20050;-83
2022/10/03 10:21:30;;;;;;;8.45;4.05;;;14.60;99.90;;;;;;5012366;28;20037;-84
2022/10/03 10:23:58;;;;;;;6.68;4.18;;;14.60;99.90;;;;;;5000006;28;20029;-84
2022/10/03 10:26:52;;;;;;;9.85;3.53;;;14.80;99.90;;;;;;5018813;28;20507;-82
2022/10/03 10:29:53;;;;;;;5.95;2.95;;;14.90;99.90;;;;;;5023850;28;20480;-80
2022/10/03 10:32:31;;;;;;;8.80;2.90;;;15.00;99.90;;;;;;5021832;28;20026;-83
2022/10/03 10:35:02;;;;;;;9.30;3.13;;;15.10;99.90;;;;;;5002469;28;20053;-81
2022/10/03 10:37:40;;;;;;;12.60;3.40;;;15.00;99.90;;;;;;5004605;28;20029;-81
2022/10/03 10:40:25;;;;;;;8.43;3.17;;;14.70;99.90;;;;;;5023162;28;20030;-83
2022/10/03 10:43:02;;;;;;;8.27;3.50;;;14.70;99.90;;;;;;5029005;28;20038;-81
2022/10/03 10:45:47;;;;;;;7.90;3.53;;;14.70;99.90;;;;;;5024547;28;20021;-81
2022/10/03 10:48:35;;;;;;;9.20;3.20;;;14.60;99.90;;;;;;5024888;28;20030;-78
2022/10/03 10:51:06;;;;;;;10.40;3.15;;;14.80;99.90;;;;;;5019830;28;20022;-80
2022/10/03 10:53:54;;;;;;;8.82;3.22;;;14.90;99.90;;;;;;5022239;28;20049;-84
2022/10/03 10:56:26;;;;;;;7.85;3.60;;;14.90;99.90;;;;;;5039954;28;20392;-80
2022/10/03 10:58:57;;;;;;;7.93;3.75;;;14.80;99.90;;;;;;5013197;28;20128;-80
2022/10/03 11:02:09;;;;;;;7.80;3.40;;;14.70;99.90;;;;;;5023309;28;20026;-79
2022/10/03 11:05:28;;;;;;;7.03;3.20;;;14.60;99.90;;;;;;5025369;28;20057;-83
2022/10/03 11:08:31;;;;;;;10.02;3.75;;;17.80;99.90;;;;;;5012182;28;20672;-82
2022/10/03 11:11:47;;;;;;;8.45;3.95;;;14.60;99.90;;;;;;5010110;28;20049;-78
2022/10/03 11:14:51;;;;;;;10.18;4.25;;;14.50;99.90;;;;;;4989944;28;20504;-80
2022/10/03 11:17:38;;;;;;;7.38;4.25;;;14.50;99.90;;;;;;5021415;28;20026;-82
2022/10/03 11:20:42;;;;;;;10.57;4.75;;;14.60;99.90;;;;;;5018147;28;20022;-82
2022/10/03 11:23:39;;;;;;;11.40;4.00;;;14.60;99.90;;;;;;5028553;28;20406;-82
2022/10/03 11:26:55;;;;;;;10.75;3.65;;;14.70;99.90;;;;;;5027045;28;20030;-81
2022/10/03 11:29:52;;;;;;;8.65;3.78;;;14.70;99.90;;;;;;5036693;28;20129;-82
2022/10/03 11:32:18;;;;;;;7.82;3.83;;;;;;;;;;5017674;28;20109;-85
2022/10/03 11:34:50;;;;;;;8.43;3.60;;;14.80;99.90;;;;;;5021303;28;20061;-82
2022/10/03 11:37:33;;;;;;;7.38;3.20;;;14.70;99.90;;;;;;4994783;28;20022;-80
2022/10/03 11:40:02;;;;;;;9.63;3.97;;;14.70;99.90;;;;;;5004968;28;20018;-81
2022/10/03 11:43:01;;;;;;;6.50;3.83;;;14.70;99.90;;;;;;5034621;28;20052;-81
2022/10/03 11:45:41;;;;;;;8.55;3.70;;;14.90;99.90;;;;;;5019409;28;20030;-78
2022/10/03 11:48:15;;;;;;;11.35;3.83;;;15.30;99.90;;;;;;4996820;28;20089;-82
2022/10/03 11:50:49;;;;;;;9.63;3.70;;;15.40;99.90;;;;;;5017542;28;20054;-81
2022/10/03 11:53:40;;;;;;;8.40;3.95;;;15.40;99.90;;;;;;5014950;28;20025;-82
2022/10/03 11:56:22;;;;;;;10.93;4.00;;;15.50;99.90;;;;;;5019080;28;20018;-82
2022/10/03 11:59:30;;;;;;;9.65;3.22;;;15.60;99.90;;;;;;5008681;28;20022;-84
2022/10/03 12:02:12;;;;;;;10.70;3.50;;;15.60;99.90;;;;;;5003805;28;20026;-81
2022/10/03 12:05:05;;;;;;;9.05;3.70;;;15.50;99.90;;;;;;5005369;28;20021;-83
2022/10/03 12:10:38;;;;;;;7.30;3.33;;;15.40;99.90;;;;;;5019191;28;20567;-84
2022/10/03 12:13:33;;;;;;;6.50;3.50;;;15.70;99.90;;;;;;5003609;28;20416;-81
2022/10/03 12:16:01;;;;;;;8.27;3.40;;;15.70;99.90;;;;;;5031669;28;20030;-85
2022/10/03 12:18:41;;;;;;;9.35;3.63;;;15.90;99.90;;;;;;5021897;28;20021;-80
2022/10/03 12:21:28;;;;;;;6.22;2.80;;;16.10;99.90;;;;;;5028035;28;20037;-83
2022/10/03 12:24:21;;;;;;;7.07;2.80;;;16.10;99.90;;;;;;5016895;28;20487;-84
2022/10/03 12:26:52;;;;;;;8.23;3.25;;;16.20;99.90;;;;;;5011893;28;20026;-85
2022/10/03 12:29:20;;;;;;;7.50;3.33;;;16.40;99.90;;;;;;5011591;28;20269;-87
2022/10/03 12:32:00;;;;;;;6.70;3.08;;;16.30;99.90;;;;;;5009242;28;20117;-86
2022/10/03 12:34:26;;;;;;;7.63;2.63;;;;;;;;;;5013125;28;20065;-85
2022/10/03 12:36:52;;;;;;;5.78;2.60;;;16.60;99.90;;;;;;5024849;28;20793;-84
2022/10/03 12:39:43;;;;;;;6.57;2.42;;;16.60;99.90;;;;;;5020265;28;20020;-87
2022/10/03 12:42:26;;;;;;;8.52;2.97;;;16.60;99.90;;;;;;5027152;28;20022;-86
2022/10/03 12:45:28;;;;;;;6.72;3.15;;;16.60;99.90;;;;;;5017526;28;20030;-86
2022/10/03 12:48:07;;;;;;;7.10;2.83;;;16.80;99.90;;;;;;5000617;28;20033;-85
2022/10/03 12:50:36;;;;;;;7.53;3.05;;;16.80;99.90;;;;;;5027688;28;20030;-86
2022/10/03 12:53:17;;;;;;;8.07;2.75;;;17.00;99.90;;;;;;5020517;28;20097;-86
2022/10/03 12:56:20;;;;;;;6.07;2.60;;;17.20;99.90;;;;;;5035829;28;20014;-86
2022/10/03 12:59:06;;;;;;;6.90;2.90;;;17.00;99.90;;;;;;5017741;28;20022;-86
2022/10/03 13:01:50;;;;;;;7.55;3.25;;;17.10;99.90;;;;;;5031669;28;20022;-82
2022/10/03 13:04:39;;;;;;;7.75;2.58;;;16.90;99.90;;;;;;5033816;28;20017;-84
2022/10/03 13:07:16;;;;;;;6.07;2.45;;;17.00;99.90;;;;;;5016784;28;20031;-84
2022/10/03 13:10:13;;;;;;;5.47;2.22;;;17.10;99.90;;;;;;5042522;28;20014;-85
2022/10/03 13:13:20;;;;;;;7.78;2.38;;;17.10;99.90;;;;;;5024236;28;20491;-84
2022/10/03 13:15:56;;;;;;;4.65;1.42;;;17.00;99.80;;;;;;4996178;28;20037;-84
2022/10/03 13:18:34;;;;;;;7.50;2.30;;;16.90;99.90;;;;;;5015813;28;20018;-85
2022/10/03 13:21:37;;;;;;;6.80;2.25;;;16.80;99.90;;;;;;5016597;28;20038;-86
2022/10/03 13:24:28;;;;;;;9.82;2.53;;;16.90;99.90;;;;;;5016245;28;20018;-84
2022/10/03 13:27:21;;;;;;;8.10;2.28;;;16.90;99.90;;;;;;5014576;28;20116;-84
2022/10/03 13:29:58;;;;;;;5.40;2.50;;;16.90;99.90;;;;;;5001843;28;20534;-86
2022/10/03 13:32:23;;;;;;;6.25;2.30;;;17.10;99.90;;;;;;5021010;28;20037;-82
2022/10/03 13:37:57;;;;;;;5.03;1.70;;;17.20;99.90;;;;;;5020880;28;20037;-83
2022/10/03 13:40:28;;;;;;;7.15;2.10;;;17.20;99.90;;;;;;5013879;28;20515;-85
2022/10/03 13:42:54;;;;;;;4.28;1.90;;;17.20;99.90;;;;;;5009888;28;20061;-84
2022/10/03 13:45:27;;;;;;;5.75;2.53;;;17.30;99.90;;;;;;5007293;28;20140;-83
2022/10/03 13:48:05;;;;;;;8.73;2.28;;;17.20;99.90;;;;;;5006624;28;20045;-84
2022/10/03 13:50:41;;;;;;;5.50;2.65;;;17.10;99.90;;;;;;5022859;28;20054;-86
2022/10/03 13:53:28;;;;;;;5.45;2.33;;;17.20;99.90;;;;;;5016726;28;20150;-84
2022/10/03 13:55:57;;;;;;;5.20;2.28;;;17.20;99.90;;;;;;5021766;28;20030;-84
2022/10/03 13:58:57;;;;;;;5.03;2.50;;;17.00;99.90;;;;;;5001747;28;20060;-86
2022/10/03 14:01:23;;;;;;;5.13;2.58;;;16.80;99.90;;;;;;5015664;28;20480;-84
2022/10/03 14:04:16;;;;;;;5.05;2.25;;;16.80;99.90;;;;;;5024495;28;20049;-85
2022/10/03 14:07:06;;;;;;;7.13;2.08;;;16.70;99.90;;;;;;5019493;28;20022;-84
2022/10/03 14:09:50;;;;;;;4.78;2.28;;;16.70;99.90;;;;;;5018019;28;20125;-86
2022/10/03 14:12:24;;;;;;;6.57;2.38;;;16.70;99.90;;;;;;5017409;28;20029;-81
2022/10/03 14:15:31;;;;;;;5.57;1.63;;;16.80;99.90;;;;;;5025740;28;20052;-84
2022/10/03 14:18:23;;;;;;;4.53;1.80;;;16.80;99.90;;;;;;5000302;28;20053;-86
2022/10/03 14:21:13;;;;;;;3.28;1.48;;;16.80;99.90;;;;;;5025668;28;20117;-86
2022/10/03 14:23:51;;;;;;;3.17;1.40;;;17.00;99.90;;;;;;5025079;28;20112;-87
2022/10/03 14:26:20;;;;;;;4.35;2.05;;;16.90;99.60;;;;;;5022620;28;20053;-84
2022/10/03 14:29:05;;;;;;;7.45;1.88;;;16.90;99.50;;;;;;5014199;28;20116;-85
2022/10/03 14:31:49;;;;;;;4.47;2.00;;;16.80;99.90;;;;;;5019900;28;20037;-83
2022/10/03 14:34:32;;;;;;;6.13;2.20;;;16.80;99.90;;;;;;5022676;28;20117;-82
2022/10/03 14:37:07;;;;;;;5.88;2.25;;;16.70;99.90;;;;;;5020545;28;20033;-84
2022/10/03 14:40:07;;;;;;;5.15;2.28;;;16.70;99.90;;;;;;5022014;28;20116;-84